New Orleans, Louisiana
Traffic Map
Current Weather Conditions
New Orleans, Louisiana
Overcast
Overcast
50°
Feels Like: 50°
Wind Chill: 50° Ceiling: 10000
Heat Index: 50° Visibility: 10mi
Dew Point: 43° Wind: 13mph
Humidity: 77% Direction: 10° (N)
Pressure: 30.1in Gusts: 0mph
Raw Report DataKNEW 151153Z AUTO 01011KT 10SM BKN100 OVC120 10/06 A3010 RMK AO2 SLP186 T01000061 10133 20100 53014
Traffic Incident Summary
Active as of:
Severity:
Category:
InformationThere was an issue retrieving the traffic information for this location. Please try a different location or try again shortly.
Advertisements